createdAt,value
2022-10-17T00:00:39.304Z,13.17
2022-10-17T00:03:09.184Z,13.20
2022-10-17T00:05:42.921Z,13.20
2022-10-17T00:08:12.708Z,13.19
2022-10-17T00:10:45.302Z,13.19
2022-10-17T00:13:15.317Z,13.21
2022-10-17T00:15:46.934Z,13.22
2022-10-17T00:18:17.080Z,13.20
2022-10-17T00:20:47.325Z,13.12
2022-10-17T00:23:17.420Z,13.10
2022-10-17T00:25:50.448Z,13.18
2022-10-17T00:28:20.717Z,13.14
2022-10-17T00:30:58.588Z,13.05
2022-10-17T00:33:28.271Z,13.05
2022-10-17T00:36:07.997Z,13.09
2022-10-17T00:38:38.113Z,13.01
2022-10-17T00:41:12.247Z,12.97
2022-10-17T00:43:56.625Z,12.99
2022-10-17T00:46:28.247Z,13.00
2022-10-17T00:49:00.121Z,13.08
2022-10-17T00:51:35.750Z,13.03
2022-10-17T00:54:06.587Z,13.04
2022-10-17T00:56:40.490Z,13.08
2022-10-17T00:59:11.993Z,13.15
2022-10-17T01:01:42.893Z,13.14
2022-10-17T01:04:12.891Z,13.09
2022-10-17T01:06:42.511Z,13.10
2022-10-17T01:09:12.269Z,13.14
2022-10-17T01:11:53.548Z,13.17
2022-10-17T01:14:32.642Z,13.15
2022-10-17T01:17:13.336Z,13.09
2022-10-17T01:20:09.486Z,13.05
2022-10-17T01:22:46.950Z,13.08
2022-10-17T01:25:32.287Z,13.00
2022-10-17T01:28:22.240Z,13.01
2022-10-17T01:31:00.410Z,13.01
2022-10-17T01:33:46.985Z,13.01
2022-10-17T01:36:27.375Z,13.01
2022-10-17T01:39:05.147Z,13.03
2022-10-17T01:41:41.269Z,13.02
2022-10-17T01:44:16.067Z,13.03
2022-10-17T01:46:52.384Z,13.05
2022-10-17T01:49:26.760Z,13.01
2022-10-17T01:52:01.944Z,13.04
2022-10-17T01:54:36.956Z,13.08
2022-10-17T01:57:11.245Z,13.19
2022-10-17T01:59:44.411Z,13.21
2022-10-17T02:02:18.776Z,13.17
2022-10-17T02:04:49.921Z,13.29
2022-10-17T02:07:19.589Z,13.25
2022-10-17T02:09:49.222Z,13.23
2022-10-17T02:12:39.101Z,13.20
2022-10-17T02:15:32.589Z,13.21
2022-10-17T02:18:18.616Z,13.20
2022-10-17T02:20:55.695Z,13.24
2022-10-17T02:23:34.436Z,13.23
2022-10-17T02:26:10.375Z,13.29
2022-10-17T02:28:46.048Z,13.23
2022-10-17T02:31:19.661Z,13.29
2022-10-17T02:33:57.442Z,13.26
2022-10-17T02:36:32.325Z,13.30
2022-10-17T02:39:04.420Z,13.27
2022-10-17T02:41:35.861Z,13.35
2022-10-17T02:44:07.745Z,13.41
2022-10-17T02:46:44.486Z,13.39
2022-10-17T02:49:21.781Z,13.47
2022-10-17T02:51:58.794Z,13.44
2022-10-17T02:54:36.789Z,13.48
2022-10-17T02:57:12.742Z,13.51
2022-10-17T02:59:45.236Z,13.52
2022-10-17T03:02:15.094Z,13.58
2022-10-17T03:04:49.394Z,13.57
2022-10-17T03:07:19.052Z,13.61
2022-10-17T03:09:48.647Z,13.68
2022-10-17T03:12:18.371Z,13.70
2022-10-17T03:14:48.103Z,13.67
2022-10-17T03:17:17.682Z,13.70
2022-10-17T03:19:49.872Z,13.80
2022-10-17T03:22:19.378Z,13.85
2022-10-17T03:24:49.114Z,13.92
2022-10-17T03:27:18.762Z,13.89
2022-10-17T03:29:48.417Z,13.90
2022-10-17T03:32:17.985Z,14.01
2022-10-17T03:34:50.128Z,14.03
2022-10-17T03:37:19.801Z,14.06
2022-10-17T03:39:49.389Z,14.17
2022-10-17T03:42:19.000Z,14.18
2022-10-17T03:44:48.557Z,14.23
2022-10-17T03:47:18.309Z,14.25
2022-10-17T03:49:51.134Z,14.23
2022-10-17T03:52:21.231Z,14.27
2022-10-17T03:54:52.460Z,14.35
2022-10-17T03:57:22.558Z,14.35
2022-10-17T03:59:53.976Z,14.34
2022-10-17T04:02:23.605Z,14.32
2022-10-17T04:04:55.869Z,14.33
2022-10-17T04:10:16.049Z,14.37
2022-10-17T04:12:45.767Z,14.34
2022-10-17T04:15:15.459Z,14.36
2022-10-17T04:17:45.046Z,14.45
2022-10-17T04:20:17.378Z,14.52
2022-10-17T04:22:46.967Z,14.48
2022-10-17T04:25:16.855Z,14.54
2022-10-17T04:27:46.568Z,14.59
2022-10-17T04:30:16.152Z,14.67
2022-10-17T04:32:45.937Z,14.69
2022-10-17T04:35:18.245Z,14.86
2022-10-17T04:37:47.956Z,14.97
2022-10-17T04:40:17.662Z,14.91
2022-10-17T04:42:47.247Z,14.92
2022-10-17T04:45:16.888Z,14.90
2022-10-17T04:47:46.507Z,14.90
2022-10-17T04:50:18.768Z,14.91
2022-10-17T04:52:48.452Z,14.98
2022-10-17T04:55:18.257Z,14.92
2022-10-17T04:57:47.903Z,14.90
2022-10-17T05:00:18.246Z,14.91
2022-10-17T05:02:47.934Z,15.01
2022-10-17T05:05:20.421Z,15.04
2022-10-17T05:07:50.249Z,15.11
2022-10-17T05:10:20.036Z,15.04
2022-10-17T05:12:50.610Z,15.10
2022-10-17T05:15:20.395Z,15.09
2022-10-17T05:17:50.650Z,15.12
2022-10-17T05:20:23.342Z,15.18
2022-10-17T05:22:53.806Z,15.22
2022-10-17T05:25:24.451Z,15.14
2022-10-17T05:27:54.279Z,15.15
2022-10-17T05:30:24.495Z,15.20
2022-10-17T05:32:56.279Z,15.16
2022-10-17T05:35:28.517Z,15.14
2022-10-17T05:37:58.238Z,15.09
2022-10-17T05:40:28.463Z,15.10
2022-10-17T05:42:58.465Z,15.03
2022-10-17T05:45:28.797Z,15.01
2022-10-17T05:47:58.870Z,14.91
2022-10-17T05:50:31.806Z,14.86
2022-10-17T05:53:01.512Z,14.78
2022-10-17T05:55:31.502Z,14.73
2022-10-17T05:58:03.391Z,14.63
2022-10-17T06:00:33.161Z,14.56
2022-10-17T06:03:02.960Z,14.48
2022-10-17T06:05:37.819Z,14.45
2022-10-17T06:08:07.738Z,14.42
2022-10-17T06:10:37.310Z,14.48
2022-10-17T06:13:07.079Z,14.48
2022-10-17T06:15:36.762Z,14.42
2022-10-17T06:18:06.602Z,14.40
2022-10-17T06:20:43.853Z,14.35
2022-10-17T06:23:15.834Z,14.30
2022-10-17T06:25:45.397Z,14.21
2022-10-17T06:28:15.078Z,14.20
2022-10-17T06:30:48.206Z,14.39
2022-10-17T06:33:18.095Z,14.40
2022-10-17T06:35:54.106Z,14.35
2022-10-17T06:38:23.960Z,14.35
2022-10-17T06:40:54.151Z,14.36
2022-10-17T06:43:27.776Z,14.40
2022-10-17T06:48:50.236Z,14.47
2022-10-17T06:51:22.436Z,14.53
2022-10-17T06:53:52.037Z,14.58
2022-10-17T06:56:21.659Z,14.60
2022-10-17T06:58:51.463Z,14.58
2022-10-17T07:01:21.222Z,14.63
2022-10-17T07:03:52.420Z,14.66
2022-10-17T07:06:25.100Z,14.70
2022-10-17T07:08:55.757Z,14.70
2022-10-17T07:11:28.665Z,14.69
2022-10-17T07:13:58.486Z,14.74
2022-10-17T07:16:28.194Z,14.82
2022-10-17T07:18:58.629Z,14.85
2022-10-17T07:21:34.061Z,14.91
2022-10-17T07:24:07.259Z,15.06
2022-10-17T07:26:36.902Z,15.04
2022-10-17T07:29:06.912Z,15.05
2022-10-17T07:31:37.147Z,15.12
2022-10-17T07:34:10.102Z,15.18
2022-10-17T07:36:42.377Z,15.21
2022-10-17T07:39:12.187Z,15.33
2022-10-17T07:41:41.929Z,15.37
2022-10-17T07:44:11.700Z,15.41
2022-10-17T07:46:41.271Z,15.46
2022-10-17T07:49:10.861Z,15.49
2022-10-17T07:51:43.291Z,15.56
2022-10-17T07:54:14.031Z,15.59
2022-10-17T07:56:43.670Z,15.59
2022-10-17T07:59:13.286Z,15.58
2022-10-17T08:01:42.833Z,15.60
2022-10-17T08:04:12.452Z,15.61
2022-10-17T08:06:44.737Z,15.60
2022-10-17T08:09:14.402Z,15.61
2022-10-17T08:11:44.541Z,15.60
2022-10-17T08:14:14.901Z,15.63
2022-10-17T08:16:44.508Z,15.64
2022-10-17T08:19:14.115Z,15.60
2022-10-17T08:21:47.152Z,15.62
2022-10-17T08:24:17.618Z,15.56
2022-10-17T08:26:49.570Z,15.53
2022-10-17T08:29:21.405Z,15.53
2022-10-17T08:31:54.112Z,15.52
2022-10-17T08:34:28.229Z,15.55
2022-10-17T08:37:00.463Z,15.54
2022-10-17T08:39:30.271Z,15.54
2022-10-17T08:42:16.231Z,15.52
2022-10-17T08:44:58.014Z,15.48
2022-10-17T08:47:36.716Z,15.48
2022-10-17T08:50:08.857Z,15.46
2022-10-17T08:52:47.977Z,15.47
2022-10-17T08:58:17.091Z,15.50
2022-10-17T09:01:01.878Z,15.52
2022-10-17T09:03:54.276Z,15.53
2022-10-17T09:06:30.494Z,15.55
2022-10-17T09:09:18.939Z,15.58
2022-10-17T09:11:59.488Z,15.57
2022-10-17T09:14:46.402Z,15.61
2022-10-17T09:17:27.616Z,15.64
2022-10-17T09:20:04.476Z,15.67
2022-10-17T09:22:41.439Z,15.71
2022-10-17T09:25:18.614Z,15.75
2022-10-17T09:27:51.078Z,15.76
2022-10-17T09:30:47.209Z,15.78
2022-10-17T09:33:28.804Z,15.79
2022-10-17T09:36:07.733Z,15.77
2022-10-17T09:38:43.323Z,15.76
2022-10-17T09:44:19.938Z,15.72
2022-10-17T09:47:07.107Z,15.68
2022-10-17T09:49:38.870Z,15.70
2022-10-17T09:52:14.672Z,15.68
2022-10-17T09:54:47.874Z,15.67
2022-10-17T09:57:21.972Z,15.64
2022-10-17T10:00:00.846Z,15.65
2022-10-17T10:02:36.502Z,15.66
2022-10-17T10:05:11.387Z,15.64
2022-10-17T10:07:42.107Z,15.65
2022-10-17T10:10:28.219Z,15.62
2022-10-17T10:13:20.568Z,15.59
2022-10-17T10:15:51.580Z,15.56
2022-10-17T10:18:32.991Z,15.47
2022-10-17T10:21:24.301Z,15.52
2022-10-17T10:24:08.196Z,15.50
2022-10-17T10:26:42.079Z,15.48
2022-10-17T10:29:26.768Z,15.47
2022-10-17T10:31:56.727Z,15.48
2022-10-17T10:34:30.495Z,15.48
2022-10-17T10:37:04.697Z,15.48
2022-10-17T10:39:43.352Z,15.48
2022-10-17T10:42:24.707Z,15.46
2022-10-17T10:45:02.832Z,15.47
2022-10-17T10:47:34.453Z,15.40
2022-10-17T10:50:20.852Z,15.34
2022-10-17T10:55:39.738Z,15.27
2022-10-17T10:58:24.459Z,15.09
2022-10-17T11:00:58.376Z,15.04
2022-10-17T11:03:34.724Z,14.96
2022-10-17T11:06:09.013Z,14.93
2022-10-17T11:08:46.384Z,14.88
2022-10-17T11:11:23.989Z,14.86
2022-10-17T11:14:01.902Z,14.92
2022-10-17T11:16:39.990Z,14.97
2022-10-17T11:19:16.314Z,15.05
2022-10-17T11:21:52.892Z,15.13
2022-10-17T11:24:27.186Z,15.19
2022-10-17T11:27:01.660Z,15.29
2022-10-17T11:29:33.323Z,15.41
2022-10-17T11:32:11.352Z,15.52
2022-10-17T11:34:45.576Z,15.61
2022-10-17T11:37:20.333Z,15.64
2022-10-17T11:39:56.007Z,15.76
2022-10-17T11:42:32.136Z,15.86
2022-10-17T11:45:07.723Z,16.01
2022-10-17T11:47:47.386Z,16.11
2022-10-17T11:53:20.252Z,16.26
2022-10-17T11:55:50.702Z,16.31
2022-10-17T11:58:35.976Z,16.40
2022-10-17T12:01:16.250Z,16.48
2022-10-17T12:04:04.793Z,16.52
2022-10-17T12:06:49.729Z,16.53
2022-10-17T12:09:27.873Z,16.51
2022-10-17T12:12:00.618Z,16.53
2022-10-17T12:14:47.507Z,16.50
2022-10-17T12:17:34.033Z,16.62
2022-10-17T12:20:31.786Z,16.58
2022-10-17T12:23:07.426Z,16.64
2022-10-17T12:28:16.754Z,16.75
2022-10-17T12:30:59.036Z,16.84
2022-10-17T12:33:35.973Z,16.84
2022-10-17T12:36:47.811Z,16.84
2022-10-17T12:39:47.225Z,16.78
2022-10-17T12:42:47.501Z,16.84
2022-10-17T12:45:48.598Z,16.86
2022-10-17T12:48:48.171Z,16.81
2022-10-17T12:51:35.385Z,16.80
2022-10-17T12:54:15.199Z,16.79
2022-10-17T12:56:47.109Z,16.83
2022-10-17T12:59:24.179Z,16.78
2022-10-17T13:01:58.561Z,16.78
2022-10-17T13:04:30.231Z,16.78
2022-10-17T13:07:01.964Z,16.75
2022-10-17T13:09:34.408Z,16.72
2022-10-17T13:12:09.014Z,16.66
2022-10-17T13:14:43.815Z,16.67
2022-10-17T13:17:25.878Z,16.65
2022-10-17T13:19:55.581Z,16.68
2022-10-17T13:22:27.669Z,16.65
2022-10-17T13:25:11.381Z,16.66
2022-10-17T13:27:40.908Z,16.71
2022-10-17T13:30:32.086Z,16.70
2022-10-17T13:33:02.872Z,16.65
2022-10-17T13:35:58.840Z,16.72
2022-10-17T13:38:28.939Z,16.72
2022-10-17T13:41:10.817Z,16.72
2022-10-17T13:43:48.983Z,16.74
2022-10-17T13:46:37.206Z,16.82
2022-10-17T13:49:15.669Z,16.79
2022-10-17T13:51:47.692Z,16.81
2022-10-17T13:54:21.741Z,16.84
2022-10-17T13:56:58.878Z,16.91
2022-10-17T13:59:35.391Z,16.97
2022-10-17T14:02:12.677Z,17.04
2022-10-17T14:05:11.828Z,17.16
2022-10-17T14:08:05.441Z,17.19
2022-10-17T14:10:30.369Z,17.24
2022-10-17T14:13:01.588Z,17.28
2022-10-17T14:15:33.448Z,17.25
2022-10-17T14:18:08.487Z,17.19
2022-10-17T14:23:35.210Z,17.16
2022-10-17T14:26:11.000Z,17.14
2022-10-17T14:28:41.417Z,17.11
2022-10-17T14:31:21.494Z,17.03
2022-10-17T14:33:55.307Z,17.03
2022-10-17T14:36:35.105Z,17.06
2022-10-17T14:39:11.872Z,17.02
2022-10-17T14:41:47.092Z,16.92
2022-10-17T14:44:23.419Z,16.93
2022-10-17T14:46:57.919Z,16.92
2022-10-17T14:49:40.428Z,16.95
2022-10-17T14:52:29.370Z,16.94
2022-10-17T14:55:01.413Z,16.97
2022-10-17T14:57:43.722Z,16.96
2022-10-17T15:00:17.928Z,16.95
2022-10-17T15:02:48.534Z,16.93
2022-10-17T15:05:23.126Z,16.90
2022-10-17T15:07:52.730Z,16.84
2022-10-17T15:10:35.184Z,16.81
2022-10-17T15:15:56.125Z,16.73
2022-10-17T15:18:25.827Z,16.67
2022-10-17T15:21:05.088Z,16.71
2022-10-17T15:23:36.425Z,16.62
2022-10-17T15:26:06.348Z,16.59
2022-10-17T15:28:36.038Z,16.57
2022-10-17T15:31:05.762Z,16.56
2022-10-17T15:33:35.278Z,16.55
2022-10-17T15:36:08.429Z,16.48
2022-10-17T15:38:41.089Z,16.43
2022-10-17T15:41:12.332Z,16.50
2022-10-17T15:43:41.988Z,16.37
2022-10-17T15:46:21.332Z,16.32
2022-10-17T15:48:51.461Z,16.33
2022-10-17T15:51:24.613Z,16.29
2022-10-17T15:53:54.214Z,16.23
2022-10-17T15:56:26.315Z,16.22
2022-10-17T15:58:56.419Z,16.12
2022-10-17T16:01:27.865Z,16.08
2022-10-17T16:03:57.935Z,15.99
2022-10-17T16:06:30.593Z,15.97
2022-10-17T16:09:00.695Z,16.00
2022-10-17T16:11:36.140Z,15.93
2022-10-17T16:14:10.721Z,15.88
2022-10-17T16:16:40.657Z,15.81
2022-10-17T16:19:11.086Z,15.77
2022-10-17T16:21:44.260Z,15.74
2022-10-17T16:24:14.733Z,15.67
2022-10-17T16:26:44.352Z,15.63
2022-10-17T16:29:14.050Z,15.61
2022-10-17T16:31:46.094Z,15.57
2022-10-17T16:34:16.784Z,15.52
2022-10-17T16:36:49.065Z,15.49
2022-10-17T16:39:18.751Z,15.45
2022-10-17T16:41:48.291Z,15.48
2022-10-17T16:44:18.045Z,15.42
2022-10-17T16:46:47.624Z,15.45
2022-10-17T16:49:18.359Z,15.44
2022-10-17T16:51:50.628Z,15.46
2022-10-17T16:54:20.486Z,15.43
2022-10-17T16:56:50.521Z,15.40
2022-10-17T16:59:20.145Z,15.37
2022-10-17T17:01:49.852Z,15.31
2022-10-17T17:04:19.732Z,15.29
2022-10-17T17:06:51.971Z,15.24
2022-10-17T17:09:21.603Z,15.20
2022-10-17T17:11:51.314Z,15.15
2022-10-17T17:14:20.969Z,15.08
2022-10-17T17:16:50.553Z,15.06
2022-10-17T17:19:20.547Z,14.99
2022-10-17T17:21:52.824Z,14.97
2022-10-17T17:24:24.135Z,14.92
2022-10-17T17:26:55.622Z,14.90
2022-10-17T17:29:26.171Z,14.85
2022-10-17T17:31:56.614Z,14.81
2022-10-17T17:34:26.185Z,14.79
2022-10-17T17:36:58.441Z,14.73
2022-10-17T17:39:28.044Z,14.70
2022-10-17T17:41:57.781Z,14.66
2022-10-17T17:44:27.438Z,14.64
2022-10-17T17:46:56.967Z,14.62
2022-10-17T17:49:26.718Z,14.60
2022-10-17T17:51:59.045Z,14.58
2022-10-17T17:54:28.717Z,14.55
2022-10-17T17:56:58.548Z,14.51
2022-10-17T17:59:28.222Z,14.48
2022-10-17T18:01:57.948Z,14.47
2022-10-17T18:04:28.276Z,14.48
2022-10-17T18:07:00.727Z,14.42
2022-10-17T18:09:30.474Z,14.42
2022-10-17T18:12:00.177Z,14.39
2022-10-17T18:14:29.923Z,14.38
2022-10-17T18:16:59.608Z,14.33
2022-10-17T18:19:29.191Z,14.30
2022-10-17T18:22:01.613Z,14.27
2022-10-17T18:24:31.271Z,14.26
2022-10-17T18:27:01.781Z,14.24
2022-10-17T18:29:32.863Z,14.22
2022-10-17T18:32:02.764Z,14.21
2022-10-17T18:34:32.338Z,14.17
2022-10-17T18:37:05.089Z,14.17
2022-10-17T18:39:34.704Z,14.15
2022-10-17T18:42:04.511Z,14.13
2022-10-17T18:44:34.182Z,14.11
2022-10-17T18:47:04.437Z,14.09
2022-10-17T18:49:34.324Z,14.06
2022-10-17T18:52:06.803Z,14.03
2022-10-17T18:54:36.445Z,14.05
2022-10-17T18:57:06.436Z,14.04
2022-10-17T18:59:36.259Z,14.02
2022-10-17T19:02:06.532Z,14.02
2022-10-17T19:04:36.288Z,14.01
2022-10-17T19:07:08.510Z,14.02
2022-10-17T19:09:38.126Z,13.96
2022-10-17T19:12:08.065Z,13.95
2022-10-17T19:14:38.549Z,13.91
2022-10-17T19:17:08.280Z,13.91
2022-10-17T19:19:38.025Z,13.86
2022-10-17T19:22:10.336Z,13.87
2022-10-17T19:24:40.155Z,13.81
2022-10-17T19:27:10.664Z,13.78
2022-10-17T19:29:43.562Z,13.74
2022-10-17T19:32:16.771Z,13.72
2022-10-17T19:34:48.910Z,13.68
2022-10-17T19:37:21.150Z,13.65
2022-10-17T19:39:51.606Z,13.62
2022-10-17T19:42:21.214Z,13.58
2022-10-17T19:44:50.901Z,13.55
2022-10-17T19:47:20.785Z,13.53
2022-10-17T19:49:50.509Z,13.51
2022-10-17T19:52:22.860Z,13.48
2022-10-17T19:54:52.383Z,13.45
2022-10-17T19:57:22.014Z,13.45
2022-10-17T19:59:55.115Z,13.40
2022-10-17T20:02:26.128Z,13.34
2022-10-17T20:05:13.864Z,13.29
2022-10-17T20:07:48.979Z,13.25
2022-10-17T20:10:19.140Z,13.21
2022-10-17T20:12:48.966Z,13.18
2022-10-17T20:15:19.199Z,13.15
2022-10-17T20:17:48.843Z,13.08
2022-10-17T20:20:18.769Z,13.06
2022-10-17T20:22:51.282Z,13.04
2022-10-17T20:25:20.987Z,13.00
2022-10-17T20:27:50.777Z,12.97
2022-10-17T20:30:20.490Z,12.94
2022-10-17T20:32:55.070Z,12.94
2022-10-17T20:35:25.475Z,12.94
2022-10-17T20:37:57.708Z,12.91
2022-10-17T20:40:35.056Z,12.90
2022-10-17T20:43:05.464Z,12.85
2022-10-17T20:45:51.219Z,12.83
2022-10-17T20:48:21.903Z,12.79
2022-10-17T20:50:51.990Z,12.76
2022-10-17T20:56:04.603Z,12.74
2022-10-17T20:58:34.194Z,12.72
2022-10-17T21:01:09.038Z,12.72
2022-10-17T21:03:42.449Z,12.69
2022-10-17T21:06:15.857Z,12.70
2022-10-17T21:08:49.831Z,12.70
2022-10-17T21:11:21.086Z,12.68
2022-10-17T21:13:56.392Z,12.66
2022-10-17T21:16:26.464Z,12.68
2022-10-17T21:18:56.353Z,12.68
2022-10-17T21:21:27.872Z,12.68
2022-10-17T21:24:01.895Z,12.71
2022-10-17T21:26:32.748Z,12.67
2022-10-17T21:29:05.819Z,12.71
2022-10-17T21:31:39.096Z,12.74
2022-10-17T21:34:10.471Z,12.72
2022-10-17T21:36:40.113Z,12.72
2022-10-17T21:39:14.425Z,12.71
2022-10-17T21:41:45.324Z,12.72
2022-10-17T21:44:17.993Z,12.73
2022-10-17T21:46:49.660Z,12.71
2022-10-17T21:49:21.813Z,12.70
2022-10-17T21:51:52.566Z,12.72
2022-10-17T21:54:25.845Z,12.69
2022-10-17T21:56:55.465Z,12.66
2022-10-17T21:59:25.061Z,12.66
2022-10-17T22:01:54.738Z,12.65
2022-10-17T22:04:24.291Z,12.63
2022-10-17T22:06:54.015Z,12.61
2022-10-17T22:09:28.629Z,12.60
2022-10-17T22:11:59.655Z,12.65
2022-10-17T22:14:30.192Z,12.62
2022-10-17T22:17:01.548Z,12.59
2022-10-17T22:19:32.686Z,12.59
2022-10-17T22:22:04.757Z,12.56
2022-10-17T22:24:37.118Z,12.55
2022-10-17T22:27:06.799Z,12.52
2022-10-17T22:29:36.545Z,12.51
2022-10-17T22:32:06.399Z,12.48
2022-10-17T22:34:36.008Z,12.50
2022-10-17T22:37:05.743Z,12.48
2022-10-17T22:39:38.712Z,12.46
2022-10-17T22:42:08.205Z,12.45
2022-10-17T22:44:38.028Z,12.42
2022-10-17T22:47:07.641Z,12.39
2022-10-17T22:49:37.276Z,12.37
2022-10-17T22:52:07.328Z,12.35
2022-10-17T22:54:39.491Z,12.32
2022-10-17T22:57:09.179Z,12.32
2022-10-17T22:59:38.814Z,12.31
2022-10-17T23:02:08.638Z,12.29
2022-10-17T23:04:38.411Z,12.29
2022-10-17T23:07:12.550Z,12.27
2022-10-17T23:09:44.916Z,12.22
2022-10-17T23:12:14.617Z,12.22
2022-10-17T23:14:44.552Z,12.21
2022-10-17T23:17:14.799Z,12.19
2022-10-17T23:19:46.139Z,12.16
2022-10-17T23:22:16.277Z,12.13
2022-10-17T23:24:48.993Z,12.11
2022-10-17T23:27:21.647Z,12.07
2022-10-17T23:29:51.222Z,12.02
2022-10-17T23:32:22.478Z,12.00
2022-10-17T23:34:52.178Z,11.96
2022-10-17T23:37:22.039Z,11.93
2022-10-17T23:39:54.234Z,11.91
2022-10-17T23:42:23.943Z,11.88
2022-10-17T23:44:53.851Z,11.83
2022-10-17T23:47:23.560Z,11.80
2022-10-17T23:49:53.201Z,11.76
2022-10-17T23:52:22.818Z,11.75
2022-10-17T23:54:55.077Z,11.74
2022-10-17T23:57:25.002Z,11.68
2022-10-17T23:59:55.514Z,11.67
